Time;durP1;ratioP1;P1;durP2;ratioP2;P2;SDS_P1;SDS_P2;PMS_P1;PMS_P2;Temp;Humidity;BMP_temperature;BMP_pressure;BME280_temperature;BME280_humidity;BME280_pressure;Samples;Min_cycle;Max_cycle;Signal;HPM_P1;HPM_P2
2021/06/14 00:02:23;;;;;;;9.13;6.67;;;;;;;;;;5133832;27;20555;-52
2021/06/14 00:04:50;;;;;;;8.40;6.07;;;;;;;;;;5134130;27;20489;-53
2021/06/14 00:07:19;;;;;;;8.13;6.43;;;;;;;;;;5133749;27;20476;-53
2021/06/14 00:09:48;;;;;;;7.60;6.50;;;;;;;;;;5134167;27;20444;-53
2021/06/14 00:12:21;;;;;;;6.10;5.50;;;;;;;;;;5134068;28;20523;-53
2021/06/14 00:14:48;;;;;;;10.40;5.80;;;;;;;;;;5134132;28;20842;-53
2021/06/14 00:17:16;;;;;;;10.10;6.30;;;;;;;;;;5134454;28;20513;-54
2021/06/14 00:19:43;;;;;;;7.37;5.73;;;;;;;;;;5134252;28;20490;-54
2021/06/14 00:22:11;;;;;;;9.27;6.50;;;;;;;;;;5133859;28;20493;-54
2021/06/14 00:24:38;;;;;;;10.93;6.30;;;;;;;;;;5137397;27;20448;-54
2021/06/14 00:27:07;;;;;;;7.70;6.30;;;;;;;;;;5137783;27;21028;-54
2021/06/14 00:29:34;;;;;;;8.63;5.97;;;;;;;;;;5137974;27;20444;-54
2021/06/14 00:32:02;;;;;;;12.70;6.30;;;;;;;;;;5137825;27;20864;-54
2021/06/14 00:34:29;;;;;;;7.27;5.43;;;;;;;;;;5137835;27;20556;-54
2021/06/14 00:36:56;;;;;;;7.60;6.10;;;;;;;;;;5137887;27;20468;-53
2021/06/14 00:39:23;;;;;;;10.20;6.60;;;;;;;;;;5137887;27;20448;-53
2021/06/14 00:41:51;;;;;;;10.33;5.90;;;;;;;;;;5137596;27;20445;-53
2021/06/14 00:44:19;;;;;;;8.87;7.00;;;;;;;;;;5138034;27;20440;-53
2021/06/14 00:46:47;;;;;;;7.63;6.87;;;;;;;;;;5137719;27;20444;-54
2021/06/14 00:49:14;;;;;;;8.57;6.47;;;;;;;;;;5137822;27;20521;-53
2021/06/14 00:51:41;;;;;;;8.10;6.57;;;;;;;;;;5137564;27;20947;-53
2021/06/14 00:54:08;;;;;;;10.53;6.80;;;;;;;;;;5137656;27;20529;-53
2021/06/14 00:56:36;;;;;;;7.23;6.23;;;;;;;;;;5137316;27;20940;-54
2021/06/14 00:59:03;;;;;;;8.60;6.17;;;;;;;;;;5137603;27;20449;-53
2021/06/14 01:01:31;;;;;;;7.83;5.67;;;;;;;;;;5137730;27;20469;-53
2021/06/14 01:03:59;;;;;;;7.20;5.73;;;;;;;;;;5137575;27;20836;-54
2021/06/14 01:06:26;;;;;;;9.10;5.87;;;;;;;;;;5137583;27;20456;-54
2021/06/14 01:08:54;;;;;;;7.60;6.50;;;;;;;;;;5137586;27;20528;-54
2021/06/14 01:11:23;;;;;;;8.47;6.13;;;;;;;;;;5137646;27;20464;-54
2021/06/14 01:13:54;;;;;;;8.20;6.83;;;;;;;;;;5138090;27;20472;-53
2021/06/14 01:16:25;;;;;;;8.73;5.80;;;;;;;;;;5137554;27;20421;-53
2021/06/14 01:18:57;;;;;;;7.10;5.77;;;;;;;;;;5137167;27;20967;-54
2021/06/14 01:21:27;;;;;;;8.27;6.13;;;;;;;;;;5137254;27;20455;-54
2021/06/14 01:24:13;;;;;;;7.77;6.27;;;;;;;;;;5137501;27;20425;-54
2021/06/14 01:26:45;;;;;;;9.60;6.60;;;;;;;;;;5137112;27;20436;-54
2021/06/14 01:29:15;;;;;;;10.53;6.10;;;;;;;;;;5137196;27;20487;-53
2021/06/14 01:31:43;;;;;;;12.00;5.70;;;;;;;;;;5136685;27;20928;-54
2021/06/14 01:34:10;;;;;;;7.20;5.60;;;;;;;;;;5137023;27;20475;-54
2021/06/14 01:36:38;;;;;;;7.13;5.37;;;;;;;;;;5135809;27;20505;-53
2021/06/14 01:39:06;;;;;;;9.93;6.03;;;;;;;;;;5136857;27;20441;-53
2021/06/14 01:41:34;;;;;;;7.83;6.50;;;;;;;;;;5136818;27;20444;-52
2021/06/14 01:44:03;;;;;;;7.10;5.10;;;;;;;;;;5136719;27;20470;-54
2021/06/14 01:46:33;;;;;;;6.43;5.40;;;;;;;;;;5136366;27;20862;-53
2021/06/14 01:49:01;;;;;;;5.73;4.90;;;;;;;;;;5136319;27;20493;-53
2021/06/14 01:51:31;;;;;;;6.20;5.37;;;;;;;;;;5136535;27;20441;-53
2021/06/14 01:54:05;;;;;;;6.10;5.13;;;;;;;;;;5136946;27;20829;-53
2021/06/14 01:56:37;;;;;;;7.70;5.70;;;;;;;;;;5136241;27;20523;-53
2021/06/14 01:59:05;;;;;;;9.60;5.90;;;;;;;;;;5136295;27;20421;-53
2021/06/14 02:01:34;;;;;;;8.30;5.67;;;;;;;;;;5136091;27;20449;-53
2021/06/14 02:04:02;;;;;;;10.40;5.50;;;;;;;;;;5136108;27;20501;-53
2021/06/14 02:06:31;;;;;;;6.87;5.53;;;;;;;;;;5136280;27;20445;-53
2021/06/14 02:08:59;;;;;;;8.57;5.70;;;;;;;;;;5135967;27;20449;-53
2021/06/14 02:11:27;;;;;;;9.50;6.10;;;;;;;;;;5136197;27;20487;-53
2021/06/14 02:13:55;;;;;;;8.27;5.53;;;;;;;;;;5136095;27;20498;-53
2021/06/14 02:16:22;;;;;;;8.63;5.30;;;;;;;;;;5135820;27;20548;-52
2021/06/14 02:18:51;;;;;;;7.63;4.93;;;;;;;;;;5136164;27;20880;-53
2021/06/14 02:21:19;;;;;;;6.53;5.17;;;;;;;;;;5135718;27;20936;-53
2021/06/14 02:23:46;;;;;;;9.13;5.80;;;;;;;;;;5135909;27;20445;-53
2021/06/14 02:26:13;;;;;;;6.80;5.10;;;;;;;;;;5135954;27;20500;-53
2021/06/14 02:28:41;;;;;;;9.90;6.07;;;;;;;;;;5135510;27;20465;-53
2021/06/14 02:31:09;;;;;;;6.00;5.40;;;;;;;;;;5135781;27;20448;-53
2021/06/14 02:33:36;;;;;;;13.63;6.10;;;;;;;;;;5135700;27;20879;-54
2021/06/14 02:36:06;;;;;;;10.00;5.97;;;;;;;;;;5135884;27;20508;-53
2021/06/14 02:38:33;;;;;;;9.27;5.60;;;;;;;;;;5135273;27;20979;-53
2021/06/14 02:41:01;;;;;;;6.90;5.30;;;;;;;;;;5135684;27;20450;-53
2021/06/14 02:43:28;;;;;;;7.40;5.97;;;;;;;;;;5135528;27;20437;-52
2021/06/14 02:45:56;;;;;;;8.13;6.00;;;;;;;;;;5135025;27;20912;-53
2021/06/14 02:48:24;;;;;;;7.77;6.07;;;;;;;;;;5134265;27;20528;-53
2021/06/14 02:50:51;;;;;;;7.37;5.90;;;;;;;;;;5134982;27;20456;-53
2021/06/14 02:53:20;;;;;;;12.87;5.80;;;;;;;;;;5135262;27;20484;-53
2021/06/14 02:55:54;;;;;;;8.00;5.97;;;;;;;;;;5134981;27;21043;-53
2021/06/14 02:58:25;;;;;;;9.83;6.10;;;;;;;;;;5135234;27;20457;-53
2021/06/14 03:00:52;;;;;;;6.60;5.83;;;;;;;;;;5135168;27;20421;-53
2021/06/14 03:03:19;;;;;;;8.03;5.70;;;;;;;;;;5134786;27;20989;-53
2021/06/14 03:05:47;;;;;;;8.40;5.77;;;;;;;;;;5135117;27;20493;-53
2021/06/14 03:08:17;;;;;;;7.90;5.90;;;;;;;;;;5134647;27;20831;-53
2021/06/14 03:10:46;;;;;;;9.40;6.10;;;;;;;;;;5135336;27;20551;-54
2021/06/14 03:13:14;;;;;;;10.80;5.47;;;;;;;;;;5134636;27;20485;-53
2021/06/14 03:15:42;;;;;;;7.10;5.97;;;;;;;;;;5134966;27;20444;-53
2021/06/14 03:18:10;;;;;;;6.80;5.87;;;;;;;;;;5134552;27;20514;-53
2021/06/14 03:20:38;;;;;;;8.43;6.50;;;;;;;;;;5134787;27;20452;-53
2021/06/14 03:23:05;;;;;;;8.90;6.23;;;;;;;;;;5134796;27;20513;-53
2021/06/14 03:25:32;;;;;;;8.10;6.17;;;;;;;;;;5134875;27;20493;-54
2021/06/14 03:28:01;;;;;;;8.23;6.20;;;;;;;;;;5134312;27;21004;-54
2021/06/14 03:30:30;;;;;;;5.53;4.93;;;;;;;;;;5134322;27;20440;-53
2021/06/14 03:32:57;;;;;;;7.03;5.70;;;;;;;;;;5134783;27;20444;-54
2021/06/14 03:35:25;;;;;;;10.43;5.50;;;;;;;;;;5134136;27;20529;-53
2021/06/14 03:37:52;;;;;;;7.40;5.73;;;;;;;;;;5134552;27;20517;-53
2021/06/14 03:40:20;;;;;;;6.20;5.20;;;;;;;;;;5134206;27;20441;-53
2021/06/14 03:42:48;;;;;;;7.80;6.03;;;;;;;;;;5134254;27;20996;-53
2021/06/14 03:45:17;;;;;;;11.40;5.60;;;;;;;;;;5134154;27;20436;-52
2021/06/14 03:47:45;;;;;;;9.17;5.73;;;;;;;;;;5134297;27;20461;-52
2021/06/14 03:50:12;;;;;;;6.10;5.03;;;;;;;;;;5134901;27;20445;-52
2021/06/14 03:52:41;;;;;;;9.53;5.60;;;;;;;;;;5134287;27;20444;-53
2021/06/14 03:55:09;;;;;;;7.50;4.77;;;;;;;;;;5134214;27;20475;-53
2021/06/14 03:57:36;;;;;;;6.87;4.53;;;;;;;;;;5133591;27;20462;-55
2021/06/14 04:00:05;;;;;;;5.53;4.53;;;;;;;;;;5133962;27;20444;-54
2021/06/14 04:02:33;;;;;;;9.30;4.87;;;;;;;;;;5134118;27;20452;-53
2021/06/14 04:08:12;;;;;;;7.63;4.10;;;;;;;;;;5133389;27;20526;-53
2021/06/14 04:10:40;;;;;;;9.70;4.60;;;;;;;;;;5131551;27;20444;-53
2021/06/14 04:13:08;;;;;;;7.77;4.67;;;;;;;;;;5131495;27;20441;-56
2021/06/14 04:15:35;;;;;;;7.80;4.80;;;;;;;;;;5131105;27;21018;-56
2021/06/14 04:18:02;;;;;;;5.93;4.30;;;;;;;;;;5130977;27;20968;-56
2021/06/14 04:20:30;;;;;;;5.00;3.63;;;;;;;;;;5131333;27;20489;-55
2021/06/14 04:22:57;;;;;;;7.40;4.20;;;;;;;;;;5130977;27;20859;-55
2021/06/14 04:25:26;;;;;;;6.63;4.27;;;;;;;;;;5130941;27;20929;-56
2021/06/14 04:27:53;;;;;;;7.50;5.00;;;;;;;;;;5131066;27;20484;-56
2021/06/14 04:30:21;;;;;;;6.40;4.50;;;;;;;;;;5131144;27;20488;-56
2021/06/14 04:32:49;;;;;;;8.93;4.53;;;;;;;;;;5131047;27;20443;-56
2021/06/14 04:35:16;;;;;;;6.83;3.40;;;;;;;;;;5130983;27;20456;-56
2021/06/14 04:37:43;;;;;;;4.93;3.97;;;;;;;;;;5130409;27;20517;-56
2021/06/14 04:40:11;;;;;;;5.90;3.77;;;;;;;;;;5130906;27;20492;-55
2021/06/14 04:42:39;;;;;;;5.40;3.90;;;;;;;;;;5130673;27;20493;-54
2021/06/14 04:45:07;;;;;;;6.60;3.97;;;;;;;;;;5131064;27;20491;-54
2021/06/14 04:47:34;;;;;;;7.47;4.33;;;;;;;;;;5130363;27;21103;-55
2021/06/14 04:50:02;;;;;;;7.47;3.80;;;;;;;;;;5130687;27;20450;-55
2021/06/14 04:52:29;;;;;;;5.23;3.47;;;;;;;;;;5130973;27;20442;-54
2021/06/14 04:54:56;;;;;;;6.27;4.00;;;;;;;;;;5130744;27;20490;-54
2021/06/14 04:57:23;;;;;;;7.33;3.90;;;;;;;;;;5130561;27;20512;-55
2021/06/14 04:59:52;;;;;;;6.20;4.30;;;;;;;;;;5130537;27;20512;-55
2021/06/14 05:02:20;;;;;;;6.60;3.73;;;;;;;;;;5130636;27;20469;-55
2021/06/14 05:04:47;;;;;;;5.07;3.63;;;;;;;;;;5130216;27;20453;-54
2021/06/14 05:07:14;;;;;;;12.03;4.93;;;;;;;;;;5129940;27;20489;-55
2021/06/14 05:09:42;;;;;;;6.07;3.80;;;;;;;;;;5130305;27;20936;-54
2021/06/14 05:12:09;;;;;;;8.37;5.07;;;;;;;;;;5129787;27;20489;-55
2021/06/14 05:14:37;;;;;;;6.87;3.67;;;;;;;;;;5130218;27;20446;-55
2021/06/14 05:17:05;;;;;;;7.53;4.00;;;;;;;;;;5129621;27;20981;-55
2021/06/14 05:19:33;;;;;;;7.67;4.87;;;;;;;;;;5116474;27;20440;-55
2021/06/14 05:22:01;;;;;;;5.33;3.60;;;;;;;;;;5116068;28;21001;-55
2021/06/14 05:24:29;;;;;;;5.23;4.50;;;;;;;;;;5116300;28;20539;-55
2021/06/14 05:26:56;;;;;;;7.50;4.10;;;;;;;;;;5115988;28;20882;-54
2021/06/14 05:29:23;;;;;;;7.57;4.80;;;;;;;;;;5116355;28;20443;-55
2021/06/14 05:31:51;;;;;;;8.80;5.40;;;;;;;;;;5115857;28;20558;-55
2021/06/14 05:34:19;;;;;;;9.00;5.10;;;;;;;;;;5115862;28;20444;-54
2021/06/14 05:36:47;;;;;;;8.63;4.73;;;;;;;;;;5115970;28;20564;-54
2021/06/14 05:39:14;;;;;;;9.67;4.60;;;;;;;;;;5116101;28;20450;-54
2021/06/14 05:41:41;;;;;;;5.30;3.87;;;;;;;;;;5115766;28;20475;-55
2021/06/14 05:44:08;;;;;;;6.47;4.20;;;;;;;;;;5115384;28;20939;-55
2021/06/14 05:46:36;;;;;;;6.97;4.93;;;;;;;;;;5115407;28;20622;-56
2021/06/14 05:49:03;;;;;;;7.67;4.43;;;;;;;;;;5116083;28;20450;-55
2021/06/14 05:51:32;;;;;;;5.40;3.90;;;;;;;;;;5116544;28;20448;-56
2021/06/14 05:53:59;;;;;;;4.63;3.33;;;;;;;;;;5115907;28;20481;-56
2021/06/14 05:56:26;;;;;;;5.00;3.80;;;;;;;;;;5116055;28;20466;-56
2021/06/14 05:58:54;;;;;;;6.60;4.20;;;;;;;;;;5115530;28;20523;-56
2021/06/14 06:01:21;;;;;;;5.43;3.90;;;;;;;;;;5115879;28;20452;-56
2021/06/14 06:03:48;;;;;;;5.77;4.50;;;;;;;;;;5115597;28;20501;-55
2021/06/14 06:06:15;;;;;;;4.53;3.83;;;;;;;;;;5115220;28;20459;-55
2021/06/14 06:08:44;;;;;;;10.40;4.90;;;;;;;;;;5115359;28;20480;-55
2021/06/14 06:11:11;;;;;;;9.30;5.23;;;;;;;;;;5115056;28;20922;-55
2021/06/14 06:13:39;;;;;;;6.60;4.40;;;;;;;;;;5115055;28;20447;-55
2021/06/14 06:16:07;;;;;;;7.30;4.30;;;;;;;;;;5115810;28;20459;-55
2021/06/14 06:18:34;;;;;;;7.93;4.80;;;;;;;;;;5115278;28;20971;-54
2021/06/14 06:21:02;;;;;;;9.50;4.10;;;;;;;;;;5115201;28;20451;-55
2021/06/14 06:23:29;;;;;;;6.20;4.20;;;;;;;;;;5114652;28;20961;-55
2021/06/14 06:25:58;;;;;;;5.40;4.03;;;;;;;;;;5114519;28;20457;-55
2021/06/14 06:28:25;;;;;;;4.53;3.40;;;;;;;;;;5115628;28;20561;-53
2021/06/14 06:30:52;;;;;;;6.90;4.47;;;;;;;;;;5114151;28;20443;-55
2021/06/14 06:33:20;;;;;;;6.60;3.90;;;;;;;;;;5115156;28;20463;-55
2021/06/14 06:35:47;;;;;;;5.80;4.20;;;;;;;;;;5115189;27;20447;-55
2021/06/14 06:38:15;;;;;;;10.83;4.90;;;;;;;;;;5114735;27;20467;-56
2021/06/14 06:40:42;;;;;;;5.27;3.63;;;;;;;;;;5114522;28;20500;-55
2021/06/14 06:43:10;;;;;;;7.50;3.90;;;;;;;;;;5114445;28;20441;-55
2021/06/14 06:45:38;;;;;;;7.40;4.60;;;;;;;;;;5114420;28;20468;-53
2021/06/14 06:48:05;;;;;;;5.53;3.90;;;;;;;;;;5114891;28;20488;-54
2021/06/14 06:50:32;;;;;;;6.03;3.80;;;;;;;;;;5114975;28;20523;-54
2021/06/14 06:53:02;;;;;;;7.40;4.17;;;;;;;;;;5115211;28;20448;-54
2021/06/14 06:55:29;;;;;;;7.30;4.20;;;;;;;;;;5115233;28;20547;-56
2021/06/14 06:57:57;;;;;;;5.43;3.90;;;;;;;;;;5114618;28;20461;-54
2021/06/14 07:00:25;;;;;;;5.77;3.50;;;;;;;;;;5114256;28;20443;-55
2021/06/14 07:02:53;;;;;;;7.70;3.10;;;;;;;;;;5114363;28;20988;-54
2021/06/14 07:05:20;;;;;;;8.40;5.20;;;;;;;;;;5114899;27;20504;-55
2021/06/14 07:07:47;;;;;;;5.70;3.67;;;;;;;;;;5114313;28;21044;-54
2021/06/14 07:10:17;;;;;;;6.83;3.40;;;;;;;;;;5114275;28;20499;-54
2021/06/14 07:12:44;;;;;;;9.93;5.10;;;;;;;;;;5114030;28;20960;-54
2021/06/14 07:15:12;;;;;;;6.33;3.87;;;;;;;;;;5114054;28;20443;-54
2021/06/14 07:17:42;;;;;;;4.80;3.33;;;;;;;;;;5113962;28;20852;-55
2021/06/14 07:20:10;;;;;;;5.07;3.47;;;;;;;;;;5113994;28;20460;-55
2021/06/14 07:22:38;;;;;;;8.53;3.83;;;;;;;;;;5113702;28;20442;-54
2021/06/14 07:25:06;;;;;;;4.07;3.33;;;;;;;;;;5114057;28;20854;-58
2021/06/14 07:27:33;;;;;;;6.63;3.90;;;;;;;;;;5113782;28;20532;-57
2021/06/14 07:30:01;;;;;;;4.63;3.77;;;;;;;;;;5113703;28;20507;-57
2021/06/14 07:32:28;;;;;;;9.23;4.30;;;;;;;;;;5114084;28;20820;-57
2021/06/14 07:34:57;;;;;;;4.57;3.73;;;;;;;;;;5113524;28;20451;-56
2021/06/14 07:37:24;;;;;;;4.10;3.43;;;;;;;;;;5114003;28;20462;-55
2021/06/14 07:39:51;;;;;;;7.57;4.33;;;;;;;;;;5113938;28;20448;-56
2021/06/14 07:42:19;;;;;;;6.17;3.30;;;;;;;;;;5113443;28;20844;-58
2021/06/14 07:44:46;;;;;;;4.63;3.63;;;;;;;;;;5113413;28;20997;-57
2021/06/14 07:47:14;;;;;;;8.43;3.67;;;;;;;;;;5113304;28;20514;-57
2021/06/14 07:49:42;;;;;;;7.03;3.83;;;;;;;;;;5113335;28;20448;-57
2021/06/14 07:52:11;;;;;;;8.60;3.60;;;;;;;;;;5113596;28;20519;-58
2021/06/14 07:54:38;;;;;;;5.70;3.70;;;;;;;;;;5113541;28;20794;-57
2021/06/14 07:57:07;;;;;;;7.40;4.60;;;;;;;;;;5113553;28;20502;-56
2021/06/14 07:59:35;;;;;;;4.53;3.57;;;;;;;;;;5113162;28;20457;-54
2021/06/14 08:02:02;;;;;;;5.93;4.20;;;;;;;;;;5112121;28;20443;-55
2021/06/14 08:04:29;;;;;;;6.07;4.47;;;;;;;;;;5113672;28;20505;-57
2021/06/14 08:06:57;;;;;;;5.60;3.50;;;;;;;;;;5112970;28;20545;-57
2021/06/14 08:09:28;;;;;;;7.37;4.60;;;;;;;;;;5113554;28;20448;-55
2021/06/14 08:11:56;;;;;;;5.60;3.63;;;;;;;;;;5112896;28;20921;-56
2021/06/14 08:14:23;;;;;;;5.50;3.67;;;;;;;;;;5113482;28;20445;-56
2021/06/14 08:16:51;;;;;;;5.47;4.00;;;;;;;;;;5112842;28;20498;-57
2021/06/14 08:19:26;;;;;;;5.20;3.93;;;;;;;;;;5112944;28;20446;-57
2021/06/14 08:22:10;;;;;;;9.47;4.20;;;;;;;;;;5112886;28;20465;-55
2021/06/14 08:27:39;;;;;;;6.33;4.33;;;;;;;;;;5070216;28;20477;-56
2021/06/14 08:30:08;;;;;;;5.77;3.50;;;;;;;;;;5070509;28;20447;-55
2021/06/14 08:32:36;;;;;;;6.37;4.10;;;;;;;;;;5090188;28;20507;-57
2021/06/14 08:35:03;;;;;;;4.50;3.50;;;;;;;;;;5114129;28;20444;-57
2021/06/14 08:37:30;;;;;;;5.97;4.00;;;;;;;;;;5112992;28;20459;-58
2021/06/14 08:39:59;;;;;;;6.57;3.10;;;;;;;;;;5112580;28;20890;-56
2021/06/14 08:42:26;;;;;;;7.13;3.53;;;;;;;;;;5113214;28;20865;-59
2021/06/14 08:44:54;;;;;;;5.43;3.80;;;;;;;;;;5113125;28;20801;-59
2021/06/14 08:47:23;;;;;;;5.40;3.70;;;;;;;;;;5112475;28;20468;-56
2021/06/14 08:49:50;;;;;;;4.37;3.03;;;;;;;;;;5112953;28;20505;-57
2021/06/14 08:52:18;;;;;;;8.53;4.20;;;;;;;;;;5112905;28;20502;-57
2021/06/14 08:54:45;;;;;;;7.37;3.73;;;;;;;;;;5116052;28;20453;-57
2021/06/14 08:57:14;;;;;;;5.60;3.83;;;;;;;;;;5116345;28;20520;-58
2021/06/14 08:59:42;;;;;;;7.77;4.47;;;;;;;;;;5116013;28;20483;-57
2021/06/14 09:02:09;;;;;;;9.80;3.60;;;;;;;;;;5116320;28;20446;-57
2021/06/14 09:04:37;;;;;;;5.77;3.80;;;;;;;;;;5116677;28;20593;-57
2021/06/14 09:07:05;;;;;;;3.33;3.03;;;;;;;;;;5116419;28;20569;-56
2021/06/14 09:09:33;;;;;;;4.17;3.47;;;;;;;;;;5116582;28;20478;-56
2021/06/14 09:12:02;;;;;;;4.10;3.43;;;;;;;;;;5116380;28;20569;-57
2021/06/14 09:14:33;;;;;;;7.30;3.60;;;;;;;;;;5116619;28;20506;-57
2021/06/14 09:17:04;;;;;;;8.87;3.67;;;;;;;;;;5116191;28;20461;-56
2021/06/14 09:19:32;;;;;;;4.77;3.20;;;;;;;;;;5116516;28;20471;-55
2021/06/14 09:22:11;;;;;;;5.40;3.67;;;;;;;;;;5114699;28;20434;-56
2021/06/14 09:24:38;;;;;;;5.70;4.40;;;;;;;;;;5116101;28;20470;-56
2021/06/14 09:27:06;;;;;;;7.63;3.63;;;;;;;;;;5116169;28;20458;-56
2021/06/14 09:29:34;;;;;;;6.27;3.70;;;;;;;;;;5115815;28;21002;-56
2021/06/14 09:32:02;;;;;;;6.03;4.27;;;;;;;;;;5116209;28;20456;-56
2021/06/14 09:34:34;;;;;;;4.83;3.13;;;;;;;;;;5116204;28;20448;-58
2021/06/14 09:37:03;;;;;;;7.50;3.77;;;;;;;;;;5115780;28;20499;-57
2021/06/14 09:39:36;;;;;;;5.63;3.03;;;;;;;;;;5116530;28;20447;-56
2021/06/14 09:42:13;;;;;;;6.20;3.50;;;;;;;;;;5115736;28;20422;-58
2021/06/14 09:44:41;;;;;;;6.00;3.83;;;;;;;;;;5116480;28;20427;-56
2021/06/14 09:47:10;;;;;;;5.37;3.87;;;;;;;;;;5115414;28;20521;-56
2021/06/14 09:49:37;;;;;;;4.40;3.00;;;;;;;;;;5115632;28;20930;-58
2021/06/14 09:52:05;;;;;;;6.30;3.60;;;;;;;;;;5115188;28;20456;-57
2021/06/14 09:54:33;;;;;;;4.03;3.07;;;;;;;;;;5115736;28;21012;-58
2021/06/14 09:57:01;;;;;;;3.30;2.73;;;;;;;;;;5115380;28;20463;-56
2021/06/14 09:59:29;;;;;;;4.10;3.17;;;;;;;;;;5115172;28;20441;-56
2021/06/14 10:02:10;;;;;;;7.40;3.70;;;;;;;;;;5114926;28;20926;-57
2021/06/14 10:04:38;;;;;;;4.57;3.20;;;;;;;;;;5115134;28;20437;-57
2021/06/14 10:07:12;;;;;;;3.37;2.60;;;;;;;;;;5114832;28;20549;-56
2021/06/14 10:09:41;;;;;;;5.80;2.97;;;;;;;;;;5115159;28;20479;-56
2021/06/14 10:12:17;;;;;;;6.07;3.00;;;;;;;;;;5114964;27;20860;-56
2021/06/14 10:14:49;;;;;;;6.50;3.50;;;;;;;;;;5115164;28;20500;-57
2021/06/14 10:17:30;;;;;;;4.53;3.30;;;;;;;;;;5114259;28;20460;-57
2021/06/14 10:19:57;;;;;;;4.80;3.07;;;;;;;;;;5115070;28;20501;-57
2021/06/14 10:22:25;;;;;;;4.00;2.83;;;;;;;;;;5114682;28;20450;-56
2021/06/14 10:24:52;;;;;;;5.77;3.03;;;;;;;;;;5115158;22;20502;-54
2021/06/14 10:27:20;;;;;;;4.07;2.40;;;;;;;;;;5074580;28;20457;-54
2021/06/14 10:29:47;;;;;;;8.57;3.70;;;;;;;;;;5073844;28;20477;-53
2021/06/14 10:32:15;;;;;;;8.30;3.57;;;;;;;;;;5073968;28;20443;-55
2021/06/14 10:34:45;;;;;;;4.60;3.07;;;;;;;;;;5073936;28;20474;-55
2021/06/14 10:37:13;;;;;;;6.03;3.77;;;;;;;;;;5074046;28;20785;-53
2021/06/14 10:39:42;;;;;;;5.10;3.10;;;;;;;;;;5073518;28;20509;-53
2021/06/14 10:42:09;;;;;;;8.00;3.43;;;;;;;;;;5073864;28;20456;-54
2021/06/14 10:44:37;;;;;;;4.40;3.13;;;;;;;;;;5073848;28;20474;-56
2021/06/14 10:47:04;;;;;;;3.83;3.20;;;;;;;;;;5074045;28;20499;-54
2021/06/14 10:49:32;;;;;;;6.13;3.10;;;;;;;;;;5075172;28;20478;-54
2021/06/14 10:52:02;;;;;;;4.37;2.97;;;;;;;;;;5073891;28;20452;-53
2021/06/14 10:54:38;;;;;;;6.23;3.60;;;;;;;;;;5073488;28;20474;-54
2021/06/14 10:57:07;;;;;;;3.23;2.73;;;;;;;;;;5073552;28;20457;-55
2021/06/14 10:59:37;;;;;;;4.63;2.63;;;;;;;;;;5073871;28;20444;-55
2021/06/14 11:02:06;;;;;;;5.00;3.70;;;;;;;;;;5073863;28;20458;-54
2021/06/14 11:04:33;;;;;;;5.73;2.43;;;;;;;;;;5073695;28;20562;-55
2021/06/14 11:07:02;;;;;;;5.27;3.00;;;;;;;;;;5073873;28;20505;-53
2021/06/14 11:09:38;;;;;;;3.40;3.10;;;;;;;;;;5073518;28;20526;-55
2021/06/14 11:12:06;;;;;;;12.23;4.20;;;;;;;;;;5073540;28;20432;-53
2021/06/14 11:14:35;;;;;;;7.27;3.33;;;;;;;;;;5073388;28;20461;-54
2021/06/14 11:17:17;;;;;;;6.40;4.23;;;;;;;;;;5073003;28;20443;-55
2021/06/14 11:19:44;;;;;;;4.60;3.07;;;;;;;;;;5069977;28;20457;-55
2021/06/14 11:22:13;;;;;;;5.70;3.27;;;;;;;;;;5073432;28;20522;-55
2021/06/14 11:24:42;;;;;;;9.23;4.00;;;;;;;;;;5073621;28;20481;-54
2021/06/14 11:27:10;;;;;;;4.80;3.67;;;;;;;;;;5073134;28;20801;-54
2021/06/14 11:29:44;;;;;;;4.50;3.20;;;;;;;;;;5073181;28;20477;-54
2021/06/14 11:32:17;;;;;;;5.73;4.50;;;;;;;;;;5073045;28;20447;-54
2021/06/14 11:34:45;;;;;;;5.27;3.40;;;;;;;;;;5074086;28;20987;-55
2021/06/14 11:37:14;;;;;;;4.30;3.40;;;;;;;;;;5073893;28;20457;-54
2021/06/14 11:39:42;;;;;;;12.10;6.20;;;;;;;;;;5073657;28;20445;-51
2021/06/14 11:42:10;;;;;;;8.17;4.83;;;;;;;;;;5073478;28;20542;-55
2021/06/14 11:44:38;;;;;;;3.70;3.00;;;;;;;;;;5073396;28;20468;-54
2021/06/14 11:47:15;;;;;;;5.33;4.00;;;;;;;;;;5073017;28;20453;-54
2021/06/14 11:49:43;;;;;;;6.93;3.20;;;;;;;;;;5072957;28;20481;-54
2021/06/14 11:52:18;;;;;;;10.50;3.50;;;;;;;;;;5073142;28;20457;-55
2021/06/14 11:54:46;;;;;;;5.40;3.80;;;;;;;;;;5073271;28;20468;-54
2021/06/14 11:57:13;;;;;;;5.77;3.93;;;;;;;;;;5072712;28;20881;-53
2021/06/14 11:59:41;;;;;;;6.90;3.90;;;;;;;;;;5073445;28;20508;-52
2021/06/14 12:02:18;;;;;;;6.27;4.40;;;;;;;;;;5072627;28;20550;-54
2021/06/14 12:04:46;;;;;;;6.07;4.07;;;;;;;;;;5073403;28;20457;-55
2021/06/14 12:07:13;;;;;;;6.23;3.13;;;;;;;;;;5072856;28;20994;-55
2021/06/14 12:09:42;;;;;;;6.40;3.80;;;;;;;;;;5072325;28;20526;-53
2021/06/14 12:12:09;;;;;;;4.47;2.97;;;;;;;;;;5072305;28;20443;-55
2021/06/14 12:14:37;;;;;;;3.13;2.80;;;;;;;;;;5072624;28;20462;-55
2021/06/14 12:17:05;;;;;;;4.47;2.50;;;;;;;;;;5073523;28;20447;-55
2021/06/14 12:19:33;;;;;;;4.43;3.20;;;;;;;;;;5072732;28;20441;-54
2021/06/14 12:22:04;;;;;;;7.00;4.10;;;;;;;;;;5072656;28;20900;-54
2021/06/14 12:24:32;;;;;;;4.70;3.00;;;;;;;;;;5072330;28;20565;-55
2021/06/14 12:27:01;;;;;;;9.70;4.00;;;;;;;;;;5072828;28;20960;-54
2021/06/14 12:29:28;;;;;;;4.77;2.97;;;;;;;;;;5075774;28;20478;-54
2021/06/14 12:32:06;;;;;;;4.40;3.00;;;;;;;;;;5076874;28;20504;-54
2021/06/14 12:34:34;;;;;;;3.97;3.33;;;;;;;;;;5076294;28;20471;-54
2021/06/14 12:37:03;;;;;;;3.30;3.00;;;;;;;;;;5076842;28;20570;-54
2021/06/14 12:39:31;;;;;;;7.43;3.37;;;;;;;;;;5076567;28;20444;-54
2021/06/14 12:41:58;;;;;;;3.67;2.67;;;;;;;;;;5076384;28;20916;-56
2021/06/14 12:44:27;;;;;;;4.03;2.50;;;;;;;;;;5076358;28;20470;-54
2021/06/14 12:46:55;;;;;;;4.00;2.70;;;;;;;;;;5076503;28;20529;-52
2021/06/14 12:49:23;;;;;;;4.23;2.57;;;;;;;;;;5076286;28;20482;-54
2021/06/14 12:51:50;;;;;;;4.03;2.20;;;;;;;;;;5076360;28;20540;-54
2021/06/14 12:54:17;;;;;;;3.00;2.70;;;;;;;;;;5076026;28;20473;-55
2021/06/14 12:56:51;;;;;;;5.23;2.43;;;;;;;;;;5076094;28;20443;-53
2021/06/14 12:59:18;;;;;;;3.43;2.57;;;;;;;;;;5075988;28;20449;-54
2021/06/14 13:01:47;;;;;;;3.30;2.53;;;;;;;;;;5076028;28;20450;-55
2021/06/14 13:04:14;;;;;;;4.00;1.90;;;;;;;;;;5075745;28;20573;-54
2021/06/14 13:06:42;;;;;;;3.30;2.40;;;;;;;;;;5076017;28;20515;-54
2021/06/14 13:09:10;;;;;;;2.97;2.17;;;;;;;;;;5076249;28;20985;-55
2021/06/14 13:11:44;;;;;;;3.70;2.70;;;;;;;;;;5075565;28;20445;-55
2021/06/14 13:14:12;;;;;;;3.60;2.70;;;;;;;;;;5075731;28;20989;-55
2021/06/14 13:16:49;;;;;;;4.40;2.80;;;;;;;;;;5075452;28;20476;-55
2021/06/14 13:19:23;;;;;;;3.87;2.90;;;;;;;;;;5075613;28;20437;-55
2021/06/14 13:21:50;;;;;;;6.30;2.90;;;;;;;;;;5075533;28;20435;-55
2021/06/14 13:24:18;;;;;;;2.70;2.40;;;;;;;;;;5075134;28;20489;-55
2021/06/14 13:26:46;;;;;;;4.03;3.23;;;;;;;;;;5075296;28;20906;-54
2021/06/14 13:29:14;;;;;;;5.73;3.17;;;;;;;;;;5075468;28;20480;-53
2021/06/14 13:31:43;;;;;;;3.70;2.73;;;;;;;;;;5075378;28;20541;-54
2021/06/14 13:34:22;;;;;;;3.17;2.87;;;;;;;;;;5075385;28;20472;-53
2021/06/14 13:36:50;;;;;;;5.83;2.97;;;;;;;;;;5075238;28;20432;-55
2021/06/14 13:39:18;;;;;;;4.10;3.10;;;;;;;;;;5074990;28;20538;-55
2021/06/14 13:41:46;;;;;;;5.77;3.57;;;;;;;;;;5074956;28;21015;-54
2021/06/14 13:44:14;;;;;;;4.70;3.40;;;;;;;;;;5075290;28;20470;-55
2021/06/14 13:46:42;;;;;;;4.07;3.00;;;;;;;;;;5075564;28;20446;-54
2021/06/14 13:49:09;;;;;;;4.70;2.73;;;;;;;;;;5075397;28;20534;-54
2021/06/14 13:51:38;;;;;;;5.27;3.30;;;;;;;;;;5075239;28;20454;-54
2021/06/14 13:54:05;;;;;;;3.90;2.70;;;;;;;;;;5075176;28;20884;-54
2021/06/14 13:56:33;;;;;;;3.43;2.80;;;;;;;;;;5075406;28;20441;-54
2021/06/14 13:59:00;;;;;;;4.60;2.87;;;;;;;;;;5074796;28;20927;-54
2021/06/14 14:01:28;;;;;;;4.50;3.17;;;;;;;;;;5075051;28;20494;-54
2021/06/14 14:03:59;;;;;;;4.10;2.70;;;;;;;;;;5075080;28;20550;-55
2021/06/14 14:06:27;;;;;;;2.60;2.40;;;;;;;;;;5074518;28;20444;-55
2021/06/14 14:08:56;;;;;;;3.67;2.40;;;;;;;;;;5074428;28;20606;-54
2021/06/14 14:11:24;;;;;;;2.60;2.30;;;;;;;;;;5074661;28;20444;-54
2021/06/14 14:13:58;;;;;;;2.97;2.60;;;;;;;;;;5074164;28;20460;-55
2021/06/14 14:16:25;;;;;;;2.27;2.07;;;;;;;;;;5074516;28;20443;-54
2021/06/14 14:18:54;;;;;;;3.00;2.70;;;;;;;;;;5074522;28;20955;-54
2021/06/14 14:21:21;;;;;;;3.27;2.23;;;;;;;;;;5074439;28;20938;-54
2021/06/14 14:23:48;;;;;;;4.27;2.50;;;;;;;;;;5074419;28;20537;-55
2021/06/14 14:26:17;;;;;;;3.30;2.90;;;;;;;;;;5075036;28;20798;-55
2021/06/14 14:28:44;;;;;;;5.20;3.13;;;;;;;;;;5074340;28;20446;-54
2021/06/14 14:31:12;;;;;;;4.33;3.17;;;;;;;;;;5073360;28;20476;-54
2021/06/14 14:33:39;;;;;;;3.27;2.93;;;;;;;;;;5073934;28;20467;-55
2021/06/14 14:36:07;;;;;;;3.80;3.03;;;;;;;;;;5074605;28;20500;-54
2021/06/14 14:38:36;;;;;;;6.40;3.30;;;;;;;;;;5073787;28;20459;-55
2021/06/14 14:41:05;;;;;;;4.60;3.00;;;;;;;;;;5074388;28;20536;-53
2021/06/14 14:43:33;;;;;;;7.60;3.37;;;;;;;;;;5074226;28;20464;-54
2021/06/14 14:46:01;;;;;;;4.63;3.40;;;;;;;;;;5073672;28;20450;-55
2021/06/14 14:48:28;;;;;;;3.90;3.50;;;;;;;;;;5073864;28;20450;-54
2021/06/14 14:50:56;;;;;;;4.13;3.37;;;;;;;;;;5073780;28;20472;-56
2021/06/14 14:53:25;;;;;;;5.07;3.37;;;;;;;;;;5074580;28;20479;-54
2021/06/14 14:55:52;;;;;;;5.17;3.17;;;;;;;;;;5074136;28;20448;-54
2021/06/14 14:58:20;;;;;;;3.77;3.37;;;;;;;;;;5073871;28;20868;-56